sensor_id;sensor_type;location;lat;lon;timestamp;P1;durP1;ratioP1;P2;durP2;ratioP2
20375;SDS011;10347;51.828;6.466;2023-02-15T00:01:53;17.75;;;10.32;;
20375;SDS011;10347;51.828;6.466;2023-02-15T00:04:20;18.63;;;11.63;;
20375;SDS011;10347;51.828;6.466;2023-02-15T00:06:48;18.38;;;10.38;;
20375;SDS011;10347;51.828;6.466;2023-02-15T00:09:14;19.85;;;11.82;;
20375;SDS011;10347;51.828;6.466;2023-02-15T00:11:40;20.35;;;11.38;;
20375;SDS011;10347;51.828;6.466;2023-02-15T00:14:19;17.40;;;10.95;;
20375;SDS011;10347;51.828;6.466;2023-02-15T00:16:45;19.00;;;11.48;;
20375;SDS011;10347;51.828;6.466;2023-02-15T00:19:13;16.95;;;10.65;;
20375;SDS011;10347;51.828;6.466;2023-02-15T00:21:40;17.02;;;10.13;;
20375;SDS011;10347;51.828;6.466;2023-02-15T00:24:06;15.80;;;10.35;;
20375;SDS011;10347;51.828;6.466;2023-02-15T00:26:33;14.80;;;9.90;;
20375;SDS011;10347;51.828;6.466;2023-02-15T00:29:00;18.55;;;11.10;;
20375;SDS011;10347;51.828;6.466;2023-02-15T00:31:29;16.52;;;10.20;;
20375;SDS011;10347;51.828;6.466;2023-02-15T00:34:00;18.70;;;11.20;;
20375;SDS011;10347;51.828;6.466;2023-02-15T00:36:31;14.90;;;9.02;;
20375;SDS011;10347;51.828;6.466;2023-02-15T00:38:57;17.83;;;10.85;;
20375;SDS011;10347;51.828;6.466;2023-02-15T00:41:22;22.48;;;11.10;;
20375;SDS011;10347;51.828;6.466;2023-02-15T00:43:48;19.02;;;10.95;;
20375;SDS011;10347;51.828;6.466;2023-02-15T00:46:13;16.95;;;10.30;;
20375;SDS011;10347;51.828;6.466;2023-02-15T00:48:39;18.85;;;10.70;;
20375;SDS011;10347;51.828;6.466;2023-02-15T00:51:05;17.45;;;10.80;;
20375;SDS011;10347;51.828;6.466;2023-02-15T00:53:31;20.20;;;10.80;;
20375;SDS011;10347;51.828;6.466;2023-02-15T00:55:56;20.83;;;11.35;;
20375;SDS011;10347;51.828;6.466;2023-02-15T00:58:23;19.70;;;11.18;;
20375;SDS011;10347;51.828;6.466;2023-02-15T01:00:48;19.60;;;11.43;;
20375;SDS011;10347;51.828;6.466;2023-02-15T01:03:14;21.38;;;11.45;;
20375;SDS011;10347;51.828;6.466;2023-02-15T01:05:41;22.65;;;12.30;;
20375;SDS011;10347;51.828;6.466;2023-02-15T01:08:07;17.05;;;10.77;;
20375;SDS011;10347;51.828;6.466;2023-02-15T01:10:33;19.77;;;11.68;;
20375;SDS011;10347;51.828;6.466;2023-02-15T01:12:59;20.00;;;10.90;;
20375;SDS011;10347;51.828;6.466;2023-02-15T01:15:25;20.77;;;11.85;;
20375;SDS011;10347;51.828;6.466;2023-02-15T01:17:51;19.33;;;12.00;;
20375;SDS011;10347;51.828;6.466;2023-02-15T01:20:19;18.13;;;11.23;;
20375;SDS011;10347;51.828;6.466;2023-02-15T01:22:45;17.25;;;11.07;;
20375;SDS011;10347;51.828;6.466;2023-02-15T01:25:12;19.33;;;11.38;;
20375;SDS011;10347;51.828;6.466;2023-02-15T01:27:37;22.52;;;12.50;;
20375;SDS011;10347;51.828;6.466;2023-02-15T01:30:03;26.20;;;13.23;;
20375;SDS011;10347;51.828;6.466;2023-02-15T01:32:29;21.27;;;12.63;;
20375;SDS011;10347;51.828;6.466;2023-02-15T01:34:55;18.70;;;11.70;;
20375;SDS011;10347;51.828;6.466;2023-02-15T01:37:21;19.92;;;12.10;;
20375;SDS011;10347;51.828;6.466;2023-02-15T01:39:46;21.17;;;12.23;;
20375;SDS011;10347;51.828;6.466;2023-02-15T01:42:12;20.08;;;11.77;;
20375;SDS011;10347;51.828;6.466;2023-02-15T01:47:16;21.75;;;13.00;;
20375;SDS011;10347;51.828;6.466;2023-02-15T01:50:12;21.98;;;12.93;;
20375;SDS011;10347;51.828;6.466;2023-02-15T01:53:07;23.58;;;13.25;;
20375;SDS011;10347;51.828;6.466;2023-02-15T01:55:41;19.75;;;12.13;;
20375;SDS011;10347;51.828;6.466;2023-02-15T01:58:12;20.23;;;12.52;;
20375;SDS011;10347;51.828;6.466;2023-02-15T02:00:39;20.08;;;12.15;;
20375;SDS011;10347;51.828;6.466;2023-02-15T02:03:05;19.02;;;11.85;;
20375;SDS011;10347;51.828;6.466;2023-02-15T02:05:31;20.40;;;11.45;;
20375;SDS011;10347;51.828;6.466;2023-02-15T02:07:58;22.33;;;13.35;;
20375;SDS011;10347;51.828;6.466;2023-02-15T02:10:25;19.17;;;12.43;;
20375;SDS011;10347;51.828;6.466;2023-02-15T02:12:52;22.05;;;12.95;;
20375;SDS011;10347;51.828;6.466;2023-02-15T02:15:24;28.38;;;13.77;;
20375;SDS011;10347;51.828;6.466;2023-02-15T02:18:10;24.83;;;14.27;;
20375;SDS011;10347;51.828;6.466;2023-02-15T02:26:26;27.17;;;14.55;;
20375;SDS011;10347;51.828;6.466;2023-02-15T02:29:23;28.33;;;15.63;;
20375;SDS011;10347;51.828;6.466;2023-02-15T02:32:12;26.48;;;15.07;;
20375;SDS011;10347;51.828;6.466;2023-02-15T02:34:51;23.75;;;14.18;;
20375;SDS011;10347;51.828;6.466;2023-02-15T02:37:24;26.42;;;15.80;;
20375;SDS011;10347;51.828;6.466;2023-02-15T02:42:56;26.42;;;14.20;;
20375;SDS011;10347;51.828;6.466;2023-02-15T02:45:32;26.42;;;14.55;;
20375;SDS011;10347;51.828;6.466;2023-02-15T02:48:08;28.35;;;15.75;;
20375;SDS011;10347;51.828;6.466;2023-02-15T02:50:39;27.75;;;15.43;;
20375;SDS011;10347;51.828;6.466;2023-02-15T02:53:05;28.55;;;15.70;;
20375;SDS011;10347;51.828;6.466;2023-02-15T02:55:32;26.77;;;15.02;;
20375;SDS011;10347;51.828;6.466;2023-02-15T02:58:09;28.52;;;15.43;;
20375;SDS011;10347;51.828;6.466;2023-02-15T03:03:32;24.48;;;14.30;;
20375;SDS011;10347;51.828;6.466;2023-02-15T03:06:05;23.52;;;13.90;;
20375;SDS011;10347;51.828;6.466;2023-02-15T03:08:45;26.27;;;14.57;;
20375;SDS011;10347;51.828;6.466;2023-02-15T03:11:15;30.08;;;15.13;;
20375;SDS011;10347;51.828;6.466;2023-02-15T03:13:41;29.80;;;15.80;;
20375;SDS011;10347;51.828;6.466;2023-02-15T03:16:08;30.52;;;15.93;;
20375;SDS011;10347;51.828;6.466;2023-02-15T03:21:38;30.80;;;16.38;;
20375;SDS011;10347;51.828;6.466;2023-02-15T03:24:15;23.48;;;14.80;;
20375;SDS011;10347;51.828;6.466;2023-02-15T03:26:45;26.63;;;15.93;;
20375;SDS011;10347;51.828;6.466;2023-02-15T03:29:14;26.23;;;15.35;;
20375;SDS011;10347;51.828;6.466;2023-02-15T03:31:42;22.65;;;14.07;;
20375;SDS011;10347;51.828;6.466;2023-02-15T03:34:11;23.67;;;13.07;;
20375;SDS011;10347;51.828;6.466;2023-02-15T03:39:33;20.83;;;12.95;;
20375;SDS011;10347;51.828;6.466;2023-02-15T03:44:35;21.90;;;12.73;;
20375;SDS011;10347;51.828;6.466;2023-02-15T03:47:29;23.63;;;13.75;;
20375;SDS011;10347;51.828;6.466;2023-02-15T03:50:08;21.13;;;12.25;;
20375;SDS011;10347;51.828;6.466;2023-02-15T03:52:57;21.67;;;11.85;;
20375;SDS011;10347;51.828;6.466;2023-02-15T03:55:27;21.63;;;12.85;;
20375;SDS011;10347;51.828;6.466;2023-02-15T03:57:53;19.02;;;12.05;;
20375;SDS011;10347;51.828;6.466;2023-02-15T04:00:38;20.55;;;12.40;;
20375;SDS011;10347;51.828;6.466;2023-02-15T04:03:33;23.00;;;12.90;;
20375;SDS011;10347;51.828;6.466;2023-02-15T04:06:14;20.88;;;12.25;;
20375;SDS011;10347;51.828;6.466;2023-02-15T04:08:39;23.10;;;13.73;;
20375;SDS011;10347;51.828;6.466;2023-02-15T04:11:24;20.80;;;12.95;;
20375;SDS011;10347;51.828;6.466;2023-02-15T04:13:49;22.13;;;11.60;;
20375;SDS011;10347;51.828;6.466;2023-02-15T04:16:21;23.08;;;13.65;;
20375;SDS011;10347;51.828;6.466;2023-02-15T04:18:50;21.35;;;12.82;;
20375;SDS011;10347;51.828;6.466;2023-02-15T04:21:34;19.55;;;11.65;;
20375;SDS011;10347;51.828;6.466;2023-02-15T04:24:18;23.92;;;12.98;;
20375;SDS011;10347;51.828;6.466;2023-02-15T04:27:03;20.63;;;12.45;;
20375;SDS011;10347;51.828;6.466;2023-02-15T04:29:30;21.05;;;12.50;;
20375;SDS011;10347;51.828;6.466;2023-02-15T04:31:57;23.25;;;13.07;;
20375;SDS011;10347;51.828;6.466;2023-02-15T04:34:24;24.45;;;13.60;;
20375;SDS011;10347;51.828;6.466;2023-02-15T04:36:50;23.90;;;13.43;;
20375;SDS011;10347;51.828;6.466;2023-02-15T04:39:16;24.85;;;14.02;;
20375;SDS011;10347;51.828;6.466;2023-02-15T04:41:43;21.30;;;13.23;;
20375;SDS011;10347;51.828;6.466;2023-02-15T04:44:09;21.70;;;12.77;;
20375;SDS011;10347;51.828;6.466;2023-02-15T04:46:35;25.20;;;13.73;;
20375;SDS011;10347;51.828;6.466;2023-02-15T04:49:00;24.58;;;14.23;;
20375;SDS011;10347;51.828;6.466;2023-02-15T04:51:26;21.45;;;12.52;;
20375;SDS011;10347;51.828;6.466;2023-02-15T04:53:52;23.17;;;12.93;;
20375;SDS011;10347;51.828;6.466;2023-02-15T04:56:18;23.05;;;13.30;;
20375;SDS011;10347;51.828;6.466;2023-02-15T04:58:44;23.55;;;13.35;;
20375;SDS011;10347;51.828;6.466;2023-02-15T05:01:10;20.40;;;13.05;;
20375;SDS011;10347;51.828;6.466;2023-02-15T05:03:36;24.02;;;14.15;;
20375;SDS011;10347;51.828;6.466;2023-02-15T05:06:02;28.77;;;15.00;;
20375;SDS011;10347;51.828;6.466;2023-02-15T05:08:28;24.63;;;14.15;;
20375;SDS011;10347;51.828;6.466;2023-02-15T05:10:53;22.73;;;13.10;;
20375;SDS011;10347;51.828;6.466;2023-02-15T05:13:19;23.80;;;13.88;;
20375;SDS011;10347;51.828;6.466;2023-02-15T05:15:48;22.95;;;13.30;;
20375;SDS011;10347;51.828;6.466;2023-02-15T05:18:18;26.10;;;14.88;;
20375;SDS011;10347;51.828;6.466;2023-02-15T05:20:45;25.38;;;14.68;;
20375;SDS011;10347;51.828;6.466;2023-02-15T05:23:10;28.10;;;15.55;;
20375;SDS011;10347;51.828;6.466;2023-02-15T05:25:36;27.38;;;15.43;;
20375;SDS011;10347;51.828;6.466;2023-02-15T05:28:21;24.75;;;13.88;;
20375;SDS011;10347;51.828;6.466;2023-02-15T05:33:52;27.40;;;14.40;;
20375;SDS011;10347;51.828;6.466;2023-02-15T05:36:18;24.83;;;14.05;;
20375;SDS011;10347;51.828;6.466;2023-02-15T05:38:43;25.15;;;14.00;;
20375;SDS011;10347;51.828;6.466;2023-02-15T05:41:09;24.60;;;13.88;;
20375;SDS011;10347;51.828;6.466;2023-02-15T05:43:35;22.35;;;13.15;;
20375;SDS011;10347;51.828;6.466;2023-02-15T05:46:02;26.00;;;14.27;;
20375;SDS011;10347;51.828;6.466;2023-02-15T05:48:27;23.08;;;13.73;;
20375;SDS011;10347;51.828;6.466;2023-02-15T05:50:57;27.45;;;14.60;;
20375;SDS011;10347;51.828;6.466;2023-02-15T05:53:26;26.45;;;14.02;;
20375;SDS011;10347;51.828;6.466;2023-02-15T05:55:53;24.60;;;14.02;;
20375;SDS011;10347;51.828;6.466;2023-02-15T05:58:23;25.40;;;13.88;;
20375;SDS011;10347;51.828;6.466;2023-02-15T06:00:52;25.42;;;13.65;;
20375;SDS011;10347;51.828;6.466;2023-02-15T06:03:18;23.88;;;13.98;;
20375;SDS011;10347;51.828;6.466;2023-02-15T06:05:43;23.85;;;13.82;;
20375;SDS011;10347;51.828;6.466;2023-02-15T06:08:09;24.30;;;13.77;;
20375;SDS011;10347;51.828;6.466;2023-02-15T06:10:35;22.20;;;13.43;;
20375;SDS011;10347;51.828;6.466;2023-02-15T06:13:00;26.33;;;14.52;;
20375;SDS011;10347;51.828;6.466;2023-02-15T06:15:26;25.13;;;13.60;;
20375;SDS011;10347;51.828;6.466;2023-02-15T06:17:51;22.15;;;13.18;;
20375;SDS011;10347;51.828;6.466;2023-02-15T06:20:17;25.23;;;13.90;;
20375;SDS011;10347;51.828;6.466;2023-02-15T06:22:43;29.00;;;15.75;;
20375;SDS011;10347;51.828;6.466;2023-02-15T06:25:08;25.83;;;14.40;;
20375;SDS011;10347;51.828;6.466;2023-02-15T06:27:36;20.63;;;12.75;;
20375;SDS011;10347;51.828;6.466;2023-02-15T06:30:02;23.85;;;13.60;;
20375;SDS011;10347;51.828;6.466;2023-02-15T06:32:29;25.17;;;13.48;;
20375;SDS011;10347;51.828;6.466;2023-02-15T06:34:54;26.08;;;13.88;;
20375;SDS011;10347;51.828;6.466;2023-02-15T06:37:20;25.27;;;14.82;;
20375;SDS011;10347;51.828;6.466;2023-02-15T06:39:45;28.45;;;15.75;;
20375;SDS011;10347;51.828;6.466;2023-02-15T06:42:11;24.05;;;13.85;;
20375;SDS011;10347;51.828;6.466;2023-02-15T06:44:36;23.55;;;13.98;;
20375;SDS011;10347;51.828;6.466;2023-02-15T06:47:02;29.75;;;14.38;;
20375;SDS011;10347;51.828;6.466;2023-02-15T06:49:27;25.42;;;14.32;;
20375;SDS011;10347;51.828;6.466;2023-02-15T06:51:53;25.27;;;14.93;;
20375;SDS011;10347;51.828;6.466;2023-02-15T06:54:18;29.15;;;15.63;;
20375;SDS011;10347;51.828;6.466;2023-02-15T06:56:44;26.77;;;14.43;;
20375;SDS011;10347;51.828;6.466;2023-02-15T06:59:10;25.83;;;14.88;;
20375;SDS011;10347;51.828;6.466;2023-02-15T07:01:35;26.80;;;15.73;;
20375;SDS011;10347;51.828;6.466;2023-02-15T07:04:01;29.33;;;15.63;;
20375;SDS011;10347;51.828;6.466;2023-02-15T07:06:30;31.98;;;17.23;;
20375;SDS011;10347;51.828;6.466;2023-02-15T07:08:57;32.80;;;16.73;;
20375;SDS011;10347;51.828;6.466;2023-02-15T07:11:24;32.63;;;17.33;;
20375;SDS011;10347;51.828;6.466;2023-02-15T07:14:08;34.60;;;18.42;;
20375;SDS011;10347;51.828;6.466;2023-02-15T07:16:34;33.17;;;17.02;;
20375;SDS011;10347;51.828;6.466;2023-02-15T07:19:00;33.85;;;17.50;;
20375;SDS011;10347;51.828;6.466;2023-02-15T07:21:25;34.80;;;17.25;;
20375;SDS011;10347;51.828;6.466;2023-02-15T07:23:51;33.37;;;17.97;;
20375;SDS011;10347;51.828;6.466;2023-02-15T07:26:17;31.27;;;17.10;;
20375;SDS011;10347;51.828;6.466;2023-02-15T07:28:43;29.02;;;16.23;;
20375;SDS011;10347;51.828;6.466;2023-02-15T07:31:09;29.58;;;16.13;;
20375;SDS011;10347;51.828;6.466;2023-02-15T07:33:34;32.47;;;16.98;;
20375;SDS011;10347;51.828;6.466;2023-02-15T07:36:01;33.75;;;17.00;;
20375;SDS011;10347;51.828;6.466;2023-02-15T07:38:32;34.47;;;18.13;;
20375;SDS011;10347;51.828;6.466;2023-02-15T07:41:00;35.45;;;17.67;;
20375;SDS011;10347;51.828;6.466;2023-02-15T07:43:27;30.13;;;16.33;;
20375;SDS011;10347;51.828;6.466;2023-02-15T07:45:54;32.00;;;16.65;;
20375;SDS011;10347;51.828;6.466;2023-02-15T07:48:23;32.80;;;18.27;;
20375;SDS011;10347;51.828;6.466;2023-02-15T07:50:49;30.00;;;16.20;;
20375;SDS011;10347;51.828;6.466;2023-02-15T07:53:14;30.85;;;17.08;;
20375;SDS011;10347;51.828;6.466;2023-02-15T07:55:40;33.30;;;18.25;;
20375;SDS011;10347;51.828;6.466;2023-02-15T07:58:05;31.83;;;16.67;;
20375;SDS011;10347;51.828;6.466;2023-02-15T08:00:31;32.00;;;16.70;;
20375;SDS011;10347;51.828;6.466;2023-02-15T08:03:17;33.20;;;17.73;;
20375;SDS011;10347;51.828;6.466;2023-02-15T08:05:43;27.52;;;15.15;;
20375;SDS011;10347;51.828;6.466;2023-02-15T08:08:10;28.05;;;15.48;;
20375;SDS011;10347;51.828;6.466;2023-02-15T08:10:58;30.75;;;16.15;;
20375;SDS011;10347;51.828;6.466;2023-02-15T08:13:46;30.80;;;16.05;;
20375;SDS011;10347;51.828;6.466;2023-02-15T08:16:23;30.70;;;16.83;;
20375;SDS011;10347;51.828;6.466;2023-02-15T08:18:48;34.63;;;18.17;;
20375;SDS011;10347;51.828;6.466;2023-02-15T08:21:15;32.70;;;17.05;;
20375;SDS011;10347;51.828;6.466;2023-02-15T08:23:40;37.08;;;18.42;;
20375;SDS011;10347;51.828;6.466;2023-02-15T08:26:06;32.63;;;17.77;;
20375;SDS011;10347;51.828;6.466;2023-02-15T08:28:31;31.75;;;16.77;;
20375;SDS011;10347;51.828;6.466;2023-02-15T08:31:04;33.25;;;17.48;;
20375;SDS011;10347;51.828;6.466;2023-02-15T08:33:31;32.28;;;17.75;;
20375;SDS011;10347;51.828;6.466;2023-02-15T08:35:56;29.15;;;16.23;;
20375;SDS011;10347;51.828;6.466;2023-02-15T08:38:26;35.50;;;19.92;;
20375;SDS011;10347;51.828;6.466;2023-02-15T08:40:52;35.97;;;19.38;;
20375;SDS011;10347;51.828;6.466;2023-02-15T08:43:17;39.30;;;19.58;;
20375;SDS011;10347;51.828;6.466;2023-02-15T08:45:43;36.35;;;17.98;;
20375;SDS011;10347;51.828;6.466;2023-02-15T08:48:08;33.03;;;17.13;;
20375;SDS011;10347;51.828;6.466;2023-02-15T08:50:34;36.33;;;19.13;;
20375;SDS011;10347;51.828;6.466;2023-02-15T08:52:59;34.75;;;17.75;;
20375;SDS011;10347;51.828;6.466;2023-02-15T08:55:25;30.58;;;17.17;;
20375;SDS011;10347;51.828;6.466;2023-02-15T08:57:50;30.88;;;17.35;;
20375;SDS011;10347;51.828;6.466;2023-02-15T09:00:16;31.95;;;18.17;;
20375;SDS011;10347;51.828;6.466;2023-02-15T09:02:42;31.17;;;17.25;;
20375;SDS011;10347;51.828;6.466;2023-02-15T09:05:08;28.52;;;16.73;;
20375;SDS011;10347;51.828;6.466;2023-02-15T09:07:34;33.10;;;17.65;;
20375;SDS011;10347;51.828;6.466;2023-02-15T09:09:59;30.75;;;16.58;;
20375;SDS011;10347;51.828;6.466;2023-02-15T09:12:25;33.05;;;17.80;;
20375;SDS011;10347;51.828;6.466;2023-02-15T09:14:50;32.88;;;17.92;;
20375;SDS011;10347;51.828;6.466;2023-02-15T09:17:16;32.42;;;18.05;;
20375;SDS011;10347;51.828;6.466;2023-02-15T09:19:41;33.92;;;18.52;;
20375;SDS011;10347;51.828;6.466;2023-02-15T09:22:07;31.67;;;17.48;;
20375;SDS011;10347;51.828;6.466;2023-02-15T09:24:32;30.50;;;16.80;;
20375;SDS011;10347;51.828;6.466;2023-02-15T09:26:59;28.92;;;16.85;;
20375;SDS011;10347;51.828;6.466;2023-02-15T09:29:24;27.60;;;15.55;;
20375;SDS011;10347;51.828;6.466;2023-02-15T09:31:50;31.67;;;17.30;;
20375;SDS011;10347;51.828;6.466;2023-02-15T09:34:16;31.13;;;17.20;;
20375;SDS011;10347;51.828;6.466;2023-02-15T09:36:44;31.13;;;17.65;;
20375;SDS011;10347;51.828;6.466;2023-02-15T09:39:11;33.47;;;18.70;;
20375;SDS011;10347;51.828;6.466;2023-02-15T09:47:31;31.55;;;17.55;;
20375;SDS011;10347;51.828;6.466;2023-02-15T09:53:14;29.95;;;17.67;;
20375;SDS011;10347;51.828;6.466;2023-02-15T10:07:23;31.73;;;17.40;;
20375;SDS011;10347;51.828;6.466;2023-02-15T10:12:44;30.75;;;16.15;;
20375;SDS011;10347;51.828;6.466;2023-02-15T10:18:30;32.33;;;17.02;;
20375;SDS011;10347;51.828;6.466;2023-02-15T10:21:07;30.50;;;16.65;;
20375;SDS011;10347;51.828;6.466;2023-02-15T10:28:48;27.35;;;15.60;;
20375;SDS011;10347;51.828;6.466;2023-02-15T10:53:30;27.42;;;16.42;;
20375;SDS011;10347;51.828;6.466;2023-02-15T10:56:03;29.65;;;16.23;;
20375;SDS011;10347;51.828;6.466;2023-02-15T11:01:47;30.75;;;16.80;;
20375;SDS011;10347;51.828;6.466;2023-02-15T11:04:37;27.67;;;15.27;;
20375;SDS011;10347;51.828;6.466;2023-02-15T11:12:47;26.08;;;15.82;;
20375;SDS011;10347;51.828;6.466;2023-02-15T11:17:59;28.42;;;16.15;;
20375;SDS011;10347;51.828;6.466;2023-02-15T11:20:35;23.55;;;14.45;;
20375;SDS011;10347;51.828;6.466;2023-02-15T11:23:13;27.05;;;14.95;;
20375;SDS011;10347;51.828;6.466;2023-02-15T11:25:41;28.67;;;15.98;;
20375;SDS011;10347;51.828;6.466;2023-02-15T11:28:15;27.55;;;15.93;;
20375;SDS011;10347;51.828;6.466;2023-02-15T11:30:47;31.15;;;17.25;;
20375;SDS011;10347;51.828;6.466;2023-02-15T11:33:21;27.13;;;15.85;;
20375;SDS011;10347;51.828;6.466;2023-02-15T11:36:41;27.92;;;15.82;;
20375;SDS011;10347;51.828;6.466;2023-02-15T11:39:01;29.45;;;17.55;;
20375;SDS011;10347;51.828;6.466;2023-02-15T11:41:31;27.45;;;15.98;;
20375;SDS011;10347;51.828;6.466;2023-02-15T11:44:04;31.45;;;16.48;;
20375;SDS011;10347;51.828;6.466;2023-02-15T11:46:45;28.08;;;15.73;;
20375;SDS011;10347;51.828;6.466;2023-02-15T11:51:55;27.48;;;15.52;;
20375;SDS011;10347;51.828;6.466;2023-02-15T11:54:24;23.58;;;14.32;;
20375;SDS011;10347;51.828;6.466;2023-02-15T11:56:55;28.25;;;16.58;;
20375;SDS011;10347;51.828;6.466;2023-02-15T11:59:33;30.13;;;15.88;;
20375;SDS011;10347;51.828;6.466;2023-02-15T12:02:01;24.50;;;14.32;;
20375;SDS011;10347;51.828;6.466;2023-02-15T12:04:32;22.58;;;14.50;;
20375;SDS011;10347;51.828;6.466;2023-02-15T12:07:03;29.85;;;17.30;;
20375;SDS011;10347;51.828;6.466;2023-02-15T12:12:30;25.30;;;14.73;;
20375;SDS011;10347;51.828;6.466;2023-02-15T12:14:58;32.08;;;16.67;;
20375;SDS011;10347;51.828;6.466;2023-02-15T12:17:30;28.38;;;16.35;;
20375;SDS011;10347;51.828;6.466;2023-02-15T12:22:38;27.02;;;14.82;;
20375;SDS011;10347;51.828;6.466;2023-02-15T12:25:31;26.00;;;14.60;;
20375;SDS011;10347;51.828;6.466;2023-02-15T12:28:03;24.38;;;14.63;;
20375;SDS011;10347;51.828;6.466;2023-02-15T12:30:30;26.80;;;14.35;;
20375;SDS011;10347;51.828;6.466;2023-02-15T12:36:01;30.45;;;16.35;;
20375;SDS011;10347;51.828;6.466;2023-02-15T12:38:37;24.02;;;14.35;;
20375;SDS011;10347;51.828;6.466;2023-02-15T12:41:22;29.95;;;15.68;;
20375;SDS011;10347;51.828;6.466;2023-02-15T12:47:01;30.20;;;15.93;;
20375;SDS011;10347;51.828;6.466;2023-02-15T12:49:36;27.95;;;15.13;;
20375;SDS011;10347;51.828;6.466;2023-02-15T12:52:04;25.42;;;14.90;;
20375;SDS011;10347;51.828;6.466;2023-02-15T12:54:34;30.88;;;15.55;;
20375;SDS011;10347;51.828;6.466;2023-02-15T12:57:38;24.58;;;14.45;;
20375;SDS011;10347;51.828;6.466;2023-02-15T12:59:59;25.88;;;15.55;;
20375;SDS011;10347;51.828;6.466;2023-02-15T13:04:53;31.70;;;16.38;;
20375;SDS011;10347;51.828;6.466;2023-02-15T13:07:21;25.67;;;14.10;;
20375;SDS011;10347;51.828;6.466;2023-02-15T13:09:49;29.67;;;15.05;;
20375;SDS011;10347;51.828;6.466;2023-02-15T13:12:21;31.23;;;15.85;;
20375;SDS011;10347;51.828;6.466;2023-02-15T13:14:51;27.38;;;15.00;;
20375;SDS011;10347;51.828;6.466;2023-02-15T13:17:30;25.02;;;13.65;;
20375;SDS011;10347;51.828;6.466;2023-02-15T13:20:00;24.83;;;13.35;;
20375;SDS011;10347;51.828;6.466;2023-02-15T13:22:39;27.40;;;15.85;;
20375;SDS011;10347;51.828;6.466;2023-02-15T13:25:15;27.35;;;14.90;;
20375;SDS011;10347;51.828;6.466;2023-02-15T13:27:45;29.05;;;15.43;;
20375;SDS011;10347;51.828;6.466;2023-02-15T13:30:32;27.80;;;15.73;;
20375;SDS011;10347;51.828;6.466;2023-02-15T13:33:02;30.38;;;16.25;;
20375;SDS011;10347;51.828;6.466;2023-02-15T13:35:42;25.80;;;13.98;;
20375;SDS011;10347;51.828;6.466;2023-02-15T13:41:09;21.30;;;12.80;;
20375;SDS011;10347;51.828;6.466;2023-02-15T13:44:02;21.15;;;12.55;;
20375;SDS011;10347;51.828;6.466;2023-02-15T13:52:22;25.35;;;14.98;;
20375;SDS011;10347;51.828;6.466;2023-02-15T14:14:39;25.50;;;14.27;;
20375;SDS011;10347;51.828;6.466;2023-02-15T14:17:16;22.90;;;13.02;;
20375;SDS011;10347;51.828;6.466;2023-02-15T14:20:01;22.92;;;13.05;;
20375;SDS011;10347;51.828;6.466;2023-02-15T14:23:11;23.65;;;12.68;;
20375;SDS011;10347;51.828;6.466;2023-02-15T14:26:09;19.35;;;11.98;;
20375;SDS011;10347;51.828;6.466;2023-02-15T14:31:37;28.08;;;15.18;;
20375;SDS011;10347;51.828;6.466;2023-02-15T14:34:08;27.23;;;14.82;;
20375;SDS011;10347;51.828;6.466;2023-02-15T14:36:59;24.58;;;13.85;;
20375;SDS011;10347;51.828;6.466;2023-02-15T14:39:35;24.38;;;13.32;;
20375;SDS011;10347;51.828;6.466;2023-02-15T14:42:34;21.27;;;12.18;;
20375;SDS011;10347;51.828;6.466;2023-02-15T14:45:13;23.13;;;13.25;;
20375;SDS011;10347;51.828;6.466;2023-02-15T14:47:44;23.23;;;13.10;;
20375;SDS011;10347;51.828;6.466;2023-02-15T15:01:17;22.15;;;12.52;;
20375;SDS011;10347;51.828;6.466;2023-02-15T15:04:07;22.40;;;13.38;;
20375;SDS011;10347;51.828;6.466;2023-02-15T15:06:40;21.02;;;12.25;;
20375;SDS011;10347;51.828;6.466;2023-02-15T15:09:12;23.23;;;13.48;;
20375;SDS011;10347;51.828;6.466;2023-02-15T15:14:09;21.88;;;12.38;;
20375;SDS011;10347;51.828;6.466;2023-02-15T15:16:54;22.58;;;13.35;;
20375;SDS011;10347;51.828;6.466;2023-02-15T15:22:17;21.25;;;13.23;;
20375;SDS011;10347;51.828;6.466;2023-02-15T15:30:02;23.38;;;13.35;;
20375;SDS011;10347;51.828;6.466;2023-02-15T15:38:02;19.83;;;12.25;;
20375;SDS011;10347;51.828;6.466;2023-02-15T15:47:00;21.25;;;12.27;;
20375;SDS011;10347;51.828;6.466;2023-02-15T15:49:49;19.42;;;11.77;;
20375;SDS011;10347;51.828;6.466;2023-02-15T15:52:20;18.23;;;11.88;;
20375;SDS011;10347;51.828;6.466;2023-02-15T15:54:48;19.92;;;12.57;;
20375;SDS011;10347;51.828;6.466;2023-02-15T15:59:56;21.52;;;12.43;;
20375;SDS011;10347;51.828;6.466;2023-02-15T16:02:25;22.48;;;13.23;;
20375;SDS011;10347;51.828;6.466;2023-02-15T16:04:51;20.15;;;12.50;;
20375;SDS011;10347;51.828;6.466;2023-02-15T16:12:23;18.55;;;11.55;;
20375;SDS011;10347;51.828;6.466;2023-02-15T16:14:51;18.83;;;12.00;;
20375;SDS011;10347;51.828;6.466;2023-02-15T16:17:25;20.02;;;11.73;;
20375;SDS011;10347;51.828;6.466;2023-02-15T16:20:06;18.83;;;11.95;;
20375;SDS011;10347;51.828;6.466;2023-02-15T16:22:40;19.38;;;12.50;;
20375;SDS011;10347;51.828;6.466;2023-02-15T16:25:18;21.35;;;12.52;;
20375;SDS011;10347;51.828;6.466;2023-02-15T16:27:50;19.27;;;12.75;;
20375;SDS011;10347;51.828;6.466;2023-02-15T16:30:21;21.90;;;13.48;;
20375;SDS011;10347;51.828;6.466;2023-02-15T16:33:14;24.83;;;13.10;;
20375;SDS011;10347;51.828;6.466;2023-02-15T16:35:41;23.20;;;13.70;;
20375;SDS011;10347;51.828;6.466;2023-02-15T16:38:30;24.95;;;15.07;;
20375;SDS011;10347;51.828;6.466;2023-02-15T16:41:03;25.05;;;15.30;;
20375;SDS011;10347;51.828;6.466;2023-02-15T16:43:29;23.48;;;14.40;;
20375;SDS011;10347;51.828;6.466;2023-02-15T16:46:02;23.23;;;14.13;;
20375;SDS011;10347;51.828;6.466;2023-02-15T16:48:30;25.27;;;14.55;;
20375;SDS011;10347;51.828;6.466;2023-02-15T16:50:57;24.80;;;14.68;;
20375;SDS011;10347;51.828;6.466;2023-02-15T16:53:25;20.50;;;12.93;;
20375;SDS011;10347;51.828;6.466;2023-02-15T16:55:56;21.83;;;12.98;;
20375;SDS011;10347;51.828;6.466;2023-02-15T16:58:28;20.50;;;13.40;;
20375;SDS011;10347;51.828;6.466;2023-02-15T17:01:11;21.48;;;12.73;;
20375;SDS011;10347;51.828;6.466;2023-02-15T17:03:40;23.25;;;14.35;;
20375;SDS011;10347;51.828;6.466;2023-02-15T17:06:18;21.42;;;13.32;;
20375;SDS011;10347;51.828;6.466;2023-02-15T17:08:46;18.67;;;12.93;;
20375;SDS011;10347;51.828;6.466;2023-02-15T17:14:19;25.45;;;15.15;;
20375;SDS011;10347;51.828;6.466;2023-02-15T17:16:47;25.17;;;14.23;;
20375;SDS011;10347;51.828;6.466;2023-02-15T17:19:25;23.23;;;13.85;;
20375;SDS011;10347;51.828;6.466;2023-02-15T17:22:05;20.60;;;13.13;;
20375;SDS011;10347;51.828;6.466;2023-02-15T17:24:33;22.73;;;13.40;;
20375;SDS011;10347;51.828;6.466;2023-02-15T17:27:23;20.13;;;12.35;;
20375;SDS011;10347;51.828;6.466;2023-02-15T17:29:51;23.67;;;14.40;;
20375;SDS011;10347;51.828;6.466;2023-02-15T17:32:22;21.77;;;13.70;;
20375;SDS011;10347;51.828;6.466;2023-02-15T17:34:50;20.83;;;12.75;;
20375;SDS011;10347;51.828;6.466;2023-02-15T17:37:42;22.20;;;13.63;;
20375;SDS011;10347;51.828;6.466;2023-02-15T17:42:49;22.35;;;13.05;;
20375;SDS011;10347;51.828;6.466;2023-02-15T17:45:15;24.15;;;13.90;;
20375;SDS011;10347;51.828;6.466;2023-02-15T17:47:42;24.23;;;14.13;;
20375;SDS011;10347;51.828;6.466;2023-02-15T17:50:10;26.38;;;13.55;;